| time (UTC) | temp F | wind direction | speed knots | gust knots | rain 1hr in | rain 24hr in | rain mn in | humidity % | barometer mb |
| 20260906182017 | 97 | 248 | 0.9 | 3.5 | 0.00 | 0.00 | 0.00 | 51 | 1016.0 |
| 20260906181018 | 97 | 0.0 | 1.7 | 0.00 | 0.00 | 0.00 | 53 | 1016.3 | |
| 20260906180037 | 96 | 248 | 0.9 | 3.5 | 0.00 | 0.00 | 0.00 | 52 | 1016.4 |
| 20260906175037 | 97 | 113 | 0.9 | 3.5 | 0.00 | 0.00 | 0.00 | 53 | 1016.9 |
| 20260906174017 | 96 | 68 | 1.7 | 3.5 | 0.00 | 0.00 | 0.00 | 53 | 1016.9 |
| 20260906173017 | 96 | 225 | 0.9 | 3.5 | 0.00 | 0.00 | 0.00 | 56 | 1017.1 |
| 20260906172017 | 94 | 90 | 0.9 | 2.6 | 0.00 | 0.00 | 0.00 | 56 | 1017.2 |
| 20260906171017 | 93 | 0.0 | 1.7 | 0.00 | 0.00 | 0.00 | 61 | 1017.2 | |
| 20260906170017 | 92 | 90 | 0.9 | 4.3 | 0.00 | 0.00 | 0.00 | 60 | 1017.2 |
| 20260906165017 | 92 | 68 | 0.9 | 2.6 | 0.00 | 0.00 | 0.00 | 63 | 1017.3 |
| 20260906164016 | 91 | 0.0 | 0.9 | 0.00 | 0.00 | 0.00 | 63 | 1017.3 | |
| 20260906163017 | 91 | 68 | 0.9 | 1.7 | 0.00 | 0.00 | 0.00 | 63 | 1017.4 |
| 20260906162017 | 91 | 68 | 2.6 | 4.3 | 0.00 | 0.00 | 0.00 | 62 | 1017.4 |
| 20260906161037 | 92 | 68 | 0.9 | 2.6 | 0.00 | 0.00 | 0.00 | 61 | 1017.4 |
| 20260906160017 | 93 | 0.0 | 0.9 | 0.00 | 0.00 | 0.00 | 60 | 1017.5 | |
| 20260906155017 | 93 | 0.0 | 0.0 | 0.00 | 0.00 | 0.00 | 60 | 1017.3 | |
| 20260906154017 | 93 | 0.0 | 0.9 | 0.00 | 0.00 | 0.00 | 59 | 1017.0 | |
| 20260906153016 | 92 | 0.0 | 1.7 | 0.00 | 0.00 | 0.00 | 60 | 1016.9 | |
| 20260906152117 | 91 | 45 | 0.9 | 2.6 | 0.00 | 0.00 | 0.00 | 61 | 1016.8 |
| 20260906151017 | 91 | 68 | 0.9 | 4.3 | 0.00 | 0.00 | 0.00 | 62 | 1016.7 |
| 20260906150017 | 89 | 68 | 0.9 | 3.5 | 0.00 | 0.00 | 0.00 | 65 | 1016.5 |
| 20260906145016 | 88 | 68 | 2.6 | 5.2 | 0.00 | 0.00 | 0.00 | 69 | 1016.5 |
| 20260906144117 | 87 | 68 | 2.6 | 4.3 | 0.00 | 0.00 | 0.00 | 69 | 1016.5 |
| 20260906143037 | 86 | 68 | 2.6 | 5.2 | 0.00 | 0.00 | 0.00 | 72 | 1016.6 |
| 20260906142016 | 86 | 68 | 3.5 | 5.2 | 0.00 | 0.00 | 0.00 | 71 | 1016.6 |
| 20260906141017 | 86 | 0.0 | 0.0 | 0.00 | 0.00 | 0.00 | 72 | 1016.6 | |
| 20260906140017 | 84 | 68 | 0.9 | 3.5 | 0.00 | 0.00 | 0.00 | 74 | 1016.6 |
| 20260906135017 | 83 | 68 | 1.7 | 2.6 | 0.00 | 0.00 | 0.00 | 76 | 1016.5 |
| 20260906134017 | 82 | 0.0 | 1.7 | 0.00 | 0.00 | 0.00 | 77 | 1016.4 | |
| 20260906133017 | 82 | 0.0 | 0.9 | 0.00 | 0.00 | 0.00 | 78 | 1016.4 | |
| 20260906132516 | 82 | 0.0 | 0.0 | 0.00 | 0.00 | 0.00 | 78 | 1016.3 | |
| 20260906131516 | 81 | 0.0 | 0.9 | 0.00 | 0.00 | 0.00 | 80 | 1016.3 | |
| 20260906130516 | 80 | 0.0 | 0.0 | 0.00 | 0.00 | 0.00 | 83 | 1016.3 | |
| 20260906125557 | 78 | 0.0 | 0.0 | 0.00 | 0.00 | 0.00 | 87 | 1016.2 | |
| 20260906124516 | 76 | 0.0 | 0.0 | 0.00 | 0.00 | 0.00 | 90 | 1015.9 | |
| 20260906123516 | 74 | 0.0 | 0.0 | 0.00 | 0.00 | 0.00 | 92 | 1015.7 | |
| 20260906122516 | 72 | 0.0 | 0.0 | 0.00 | 0.00 | 0.00 | 93 | 1015.7 | |
| 20260906121516 | 72 | 0.0 | 0.0 | 0.00 | 0.00 | 0.00 | 92 | 1015.6 | |
| 20260906120516 | 71 | 0.0 | 0.0 | 0.00 | 0.00 | 0.00 | 93 | 1015.5 | |
| 20260906115516 | 71 | 0.0 | 0.0 | 0.00 | 0.00 | 0.00 | 92 | 1015.3 | |
| 20260906114516 | 72 | 0.0 | 0.0 | 0.00 | 0.00 | 0.00 | 92 | 1015.5 | |
| 20260906113516 | 72 | 0.0 | 0.0 | 0.00 | 0.00 | 0.00 | 92 | 1015.5 | |
| 20260906112517 | 72 | 0.0 | 0.0 | 0.00 | 0.00 | 0.00 | 91 | 1015.4 | |
| 20260906111516 | 72 | 0.0 | 0.0 | 0.00 | 0.00 | 0.00 | 91 | 1015.4 | |
| 20260906110517 | 72 | 0.0 | 0.0 | 0.00 | 0.00 | 0.00 | 91 | 1015.5 | |
| 20260906105516 | 72 | 0.0 | 0.0 | 0.00 | 0.00 | 0.00 | 91 | 1015.4 | |
| 20260906104516 | 72 | 0.0 | 0.0 | 0.00 | 0.00 | 0.00 | 90 | 1015.4 | |
| 20260906103516 | 73 | 0.0 | 0.9 | 0.00 | 0.00 | 0.00 | 90 | 1015.3 | |
| 20260906102516 | 73 | 0.0 | 0.0 | 0.00 | 0.00 | 0.00 | 90 | 1015.4 | |
| 20260906101516 | 73 | 0.0 | 0.0 | 0.00 | 0.00 | 0.00 | 89 | 1015.5 | |
| 20260906100516 | 73 | 0.0 | 0.0 | 0.00 | 0.00 | 0.00 | 89 | 1015.5 | |
| 20260906095516 | 74 | 0.0 | 0.0 | 0.00 | 0.00 | 0.00 | 89 | 1015.5 | |
| 20260906094536 | 73 | 0.0 | 0.0 | 0.00 | 0.00 | 0.00 | 87 | 1015.4 | |
| 20260906093516 | 74 | 0.0 | 0.0 | 0.00 | 0.00 | 0.00 | 87 | 1015.5 | |
| 20260906092536 | 74 | 0.0 | 0.0 | 0.00 | 0.00 | 0.00 | 86 | 1015.3 | |
| 20260906091516 | 75 | 0.0 | 0.0 | 0.00 | 0.00 | 0.00 | 86 | 1015.3 | |
| 20260906090516 | 75 | 0.0 | 0.9 | 0.00 | 0.00 | 0.00 | 87 | 1015.1 | |
| 20260906085516 | 75 | 0.0 | 0.0 | 0.00 | 0.00 | 0.00 | 85 | 1015.1 | |
| 20260906084516 | 76 | 0.0 | 0.0 | 0.00 | 0.00 | 0.00 | 84 | 1015.2 | |
| 20260906083516 | 76 | 0.0 | 0.0 | 0.00 | 0.00 | 0.00 | 83 | 1015.1 | |
| 20260906082516 | 77 | 0.0 | 0.0 | 0.00 | 0.00 | 0.00 | 82 | 1015.2 | |
| 20260906081516 | 77 | 0.0 | 0.0 | 0.00 | 0.00 | 0.00 | 81 | 1015.1 | |
| 20260906080516 | 77 | 0.0 | 0.0 | 0.00 | 0.00 | 0.00 | 80 | 1015.1 | |
| 20260906075516 | 78 | 0.0 | 0.0 | 0.00 | 0.00 | 0.00 | 78 | 1014.9 | |
| 20260906074516 | 79 | 0.0 | 0.0 | 0.00 | 0.00 | 0.00 | 76 | 1015.1 | |
| 20260906073516 | 80 | 0.0 | 0.0 | 0.00 | 0.00 | 0.00 | 75 | 1015.1 | |
| 20260906072516 | 81 | 0.0 | 0.9 | 0.00 | 0.00 | 0.00 | 75 | 1015.1 | |
| 20260906071536 | 81 | 0.0 | 0.9 | 0.00 | 0.00 | 0.00 | 75 | 1015.1 | |
| 20260906070516 | 81 | 0.0 | 0.9 | 0.00 | 0.00 | 0.00 | 75 | 1015.1 | |
| 20260906065518 | 81 | 0.0 | 0.9 | 0.00 | 0.00 | 0.00 | 75 | 1015.3 | |
| 20260906064516 | 81 | 0.0 | 0.9 | 0.00 | 0.00 | 0.00 | 75 | 1015.3 | |
| 20260906063536 | 81 | 0.0 | 0.0 | 0.00 | 0.00 | 0.00 | 75 | 1015.5 | |
| 20260906062516 | 82 | 0.0 | 3.5 | 0.00 | 0.00 | 0.00 | 75 | 1015.6 | |
| 20260906061516 | 82 | 0.0 | 0.9 | 0.00 | 0.00 | 0.00 | 74 | 1015.5 | |
| 20260906060516 | 82 | 0.0 | 0.9 | 0.00 | 0.00 | 0.00 | 74 | 1015.5 | |
| 20260906055556 | 83 | 0.0 | 2.6 | 0.00 | 0.00 | 0.00 | 73 | 1015.6 | |
| 20260906054516 | 83 | 0.0 | 0.9 | 0.00 | 0.00 | 0.00 | 73 | 1015.6 | |
| 20260906053536 | 83 | 0.0 | 0.9 | 0.00 | 0.00 | 0.00 | 73 | 1015.7 | |
| 20260906052516 | 83 | 0.0 | 0.9 | 0.00 | 0.00 | 0.00 | 73 | 1015.6 | |
| 20260906051516 | 83 | 0.0 | 1.7 | 0.00 | 0.00 | 0.00 | 74 | 1015.6 | |
| 20260906050516 | 82 | 0.0 | 1.7 | 0.00 | 0.00 | 0.00 | 74 | 1015.6 | |
| 20260906045515 | 82 | 0.0 | 0.9 | 0.00 | 0.00 | 0.00 | 74 | 1015.6 | |
| 20260906044515 | 82 | 0.0 | 0.9 | 0.00 | 0.00 | 0.00 | 74 | 1015.6 | |
| 20260906043535 | 83 | 0.0 | 0.0 | 0.00 | 0.00 | 0.00 | 74 | 1015.6 | |
| 20260906042515 | 83 | 0.0 | 0.9 | 0.00 | 0.00 | 0.00 | 73 | 1015.6 | |
| 20260906041515 | 83 | 0.0 | 0.9 | 0.00 | 0.00 | 0.00 | 73 | 1015.6 | |
| 20260906040515 | 83 | 0.0 | 1.7 | 0.00 | 0.00 | 0.00 | 73 | 1015.4 | |
| 20260906035515 | 83 | 0.0 | 0.9 | 0.00 | 0.00 | 0.00 | 73 | 1015.3 | |
| 20260906034535 | 82 | 90 | 0.9 | 3.5 | 0.00 | 0.00 | 0.00 | 75 | 1015.2 |
| 20260906033515 | 81 | 0.0 | 1.7 | 0.00 | 0.00 | 0.00 | 75 | 1015.0 | |
| 20260906032515 | 80 | 0.0 | 0.0 | 0.00 | 0.00 | 0.00 | 77 | 1014.8 | |
| 20260906031515 | 80 | 0.0 | 0.0 | 0.00 | 0.00 | 0.00 | 77 | 1014.8 | |
| 20260906030516 | 79 | 0.0 | 0.0 | 0.00 | 0.00 | 0.00 | 78 | 1014.7 | |
| 20260906025515 | 80 | 0.0 | 0.0 | 0.00 | 0.00 | 0.00 | 78 | 1014.4 | |
| 20260906024515 | 80 | 0.0 | 0.0 | 0.00 | 0.00 | 0.00 | 77 | 1014.3 | |
| 20260906023515 | 80 | 0.0 | 0.0 | 0.00 | 0.00 | 0.00 | 78 | 1014.1 | |
| 20260906022535 | 80 | 0.0 | 0.0 | 0.00 | 0.00 | 0.00 | 79 | 1013.8 | |
| 20260906021515 | 80 | 0.0 | 0.0 | 0.00 | 0.00 | 0.00 | 80 | 1013.7 | |
| 20260906020535 | 80 | 0.0 | 0.0 | 0.00 | 0.00 | 0.00 | 79 | 1013.6 | |
| 20260906015517 | 80 | 0.0 | 0.0 | 0.00 | 0.00 | 0.00 | 76 | 1013.5 | |
| 20260906014517 | 81 | 0.0 | 0.0 | 0.00 | 0.00 | 0.00 | 75 | 1013.3 | |
| 20260906013517 | 81 | 0.0 | 0.0 | 0.00 | 0.00 | 0.00 | 75 | 1013.1 | |
| 20260906012637 | 82 | 0.0 | 0.0 | 0.00 | 0.00 | 0.00 | 73 | 1013.0 | |
| 20260906011517 | 83 | 0.0 | 0.0 | 0.00 | 0.00 | 0.00 | 70 | 1012.9 | |
| 20260906010517 | 84 | 0.0 | 0.0 | 0.00 | 0.00 | 0.00 | 69 | 1012.7 | |
| 20260906005517 | 85 | 0.0 | 0.0 | 0.00 | 0.00 | 0.00 | 66 | 1012.6 | |
| 20260906004517 | 87 | 0.0 | 0.0 | 0.00 | 0.00 | 0.00 | 64 | 1012.6 | |
| 20260906003515 | 88 | 0.0 | 0.0 | 0.00 | 0.00 | 0.00 | 63 | 1012.6 | |
| 20260906002517 | 90 | 0.0 | 0.0 | 0.00 | 0.00 | 0.00 | 61 | 1012.7 | |
| 20260906001537 | 91 | 0.0 | 0.0 | 0.00 | 0.00 | 0.00 | 59 | 1012.7 | |
| 20260906000517 | 93 | 0.0 | 0.0 | 0.00 | 0.00 | 0.00 | 57 | 1012.8 | |
| 20260905235517 | 95 | 0.0 | 0.0 | 0.00 | 0.00 | 0.00 | 56 | 1012.9 | |
| 20260905234517 | 96 | 0.0 | 0.0 | 0.00 | 0.00 | 0.00 | 56 | 1013.0 | |
| 20260905233517 | 97 | 0.0 | 0.0 | 0.00 | 0.00 | 0.00 | 53 | 1013.1 | |
| 20260905232517 | 98 | 0.0 | 0.0 | 0.00 | 0.00 | 0.00 | 54 | 1013.1 | |
| 20260905231517 | 99 | 0.0 | 0.0 | 0.00 | 0.00 | 0.00 | 47 | 1013.0 | |
| 20260905230517 | 99 | 0.0 | 0.9 | 0.00 | 0.00 | 0.00 | 46 | 1012.9 | |
| 20260905225537 | 98 | 0.0 | 1.7 | 0.00 | 0.00 | 0.00 | 49 | 1013.0 | |
| 20260905224517 | 98 | 0.0 | 0.0 | 0.00 | 0.00 | 0.00 | 48 | 1012.8 | |
| 20260905223517 | 97 | 0.0 | 0.9 | 0.00 | 0.00 | 0.00 | 50 | 1013.0 | |
| 20260905222517 | 98 | 0.0 | 0.9 | 0.00 | 0.00 | 0.00 | 47 | 1013.2 | |
| 20260905221557 | 100 | 0.0 | 1.7 | 0.00 | 0.00 | 0.00 | 43 | 1013.4 | |
| 20260905220516 | 99 | 0.0 | 2.6 | 0.00 | 0.00 | 0.00 | 46 | 1013.3 | |
| 20260905215517 | 99 | 0.0 | 0.0 | 0.00 | 0.00 | 0.00 | 45 | 1013.4 | |
| 20260905214517 | 101 | 248 | 2.6 | 5.2 | 0.00 | 0.00 | 0.00 | 42 | 1013.3 |
| 20260905213517 | 101 | 113 | 0.9 | 3.5 | 0.00 | 0.00 | 0.00 | 43 | 1013.3 |
| 20260905212517 | 100 | 113 | 0.9 | 3.5 | 0.00 | 0.00 | 0.00 | 45 | 1013.4 |
| 20260905211517 | 100 | 68 | 1.7 | 4.3 | 0.00 | 0.00 | 0.00 | 44 | 1013.7 |
| 20260905210516 | 101 | 0.0 | 1.7 | 0.00 | 0.00 | 0.00 | 43 | 1013.8 | |
| 20260905205516 | 100 | 113 | 0.9 | 2.6 | 0.00 | 0.00 | 0.00 | 46 | 1013.8 |
| 20260905204537 | 100 | 68 | 0.9 | 5.2 | 0.00 | 0.00 | 0.00 | 43 | 1013.9 |
| 20260905203517 | 100 | 248 | 1.7 | 3.5 | 0.00 | 0.00 | 0.00 | 45 | 1014.0 |
| 20260905202516 | 101 | 113 | 1.7 | 5.2 | 0.00 | 0.00 | 0.00 | 44 | 1014.3 |
| 20260905201537 | 100 | 45 | 0.9 | 4.3 | 0.00 | 0.00 | 0.00 | 45 | 1014.2 |
| 20260905200517 | 102 | 113 | 0.9 | 2.6 | 0.00 | 0.00 | 0.00 | 42 | 1014.6 |
| 20260905195516 | 101 | 225 | 0.9 | 3.5 | 0.00 | 0.00 | 0.00 | 47 | 1014.7 |
| 20260905194516 | 101 | 113 | 0.9 | 4.3 | 0.00 | 0.00 | 0.00 | 47 | 1014.8 |
| 20260905193517 | 101 | 203 | 0.9 | 2.6 | 0.00 | 0.00 | 0.00 | 44 | 1014.7 |
| 20260905192517 | 100 | 270 | 2.6 | 7.0 | 0.00 | 0.00 | 0.00 | 48 | 1015.0 |
| 20260905191516 | 100 | 225 | 1.7 | 5.2 | 0.00 | 0.00 | 0.00 | 47 | 1015.0 |
| 20260905190517 | 100 | 68 | 1.7 | 7.0 | 0.00 | 0.00 | 0.00 | 45 | 1015.1 |
| 20260905185537 | 99 | 248 | 2.6 | 7.8 | 0.00 | 0.00 | 0.00 | 46 | 1015.2 |
| 20260905184517 | 100 | 225 | 1.7 | 4.3 | 0.00 | 0.00 | 0.00 | 45 | 1015.5 |
| 20260905183516 | 99 | 158 | 1.7 | 4.3 | 0.00 | 0.00 | 0.00 | 44 | 1015.4 |